createdAt,value
2019-01-23T00:00:58.891Z,-3.83
2019-01-23T00:03:31.914Z,-3.88
2019-01-23T00:06:05.748Z,-3.88
2019-01-23T00:08:39.295Z,-3.92
2019-01-23T00:11:13.396Z,-3.94
2019-01-23T00:13:55.594Z,-3.90
2019-01-23T00:16:28.877Z,-3.97
2019-01-23T00:19:02.224Z,-3.97
2019-01-23T00:21:35.735Z,-3.90
2019-01-23T00:24:09.906Z,-3.97
2019-01-23T00:26:44.492Z,-4.02
2019-01-23T00:29:27.556Z,-3.93
2019-01-23T00:32:01.761Z,-4.02
2019-01-23T00:34:44.578Z,-4.04
2019-01-23T00:37:17.770Z,-4.17
2019-01-23T00:39:51.416Z,-4.17
2019-01-23T00:42:26.648Z,-4.14
2019-01-23T00:44:59.945Z,-4.23
2019-01-23T00:47:33.702Z,-4.20
2019-01-23T00:50:07.755Z,-4.28
2019-01-23T00:52:41.182Z,-4.21
2019-01-23T00:55:15.441Z,-4.26
2019-01-23T00:58:00.392Z,-4.24
2019-01-23T01:00:34.202Z,-4.34
2019-01-23T01:03:07.779Z,-4.41
2019-01-23T01:05:41.105Z,-4.41
2019-01-23T01:08:15.051Z,-4.45
2019-01-23T01:10:48.362Z,-4.42
2019-01-23T01:13:22.880Z,-4.55
2019-01-23T01:16:05.332Z,-4.56
2019-01-23T01:18:48.335Z,-4.59
2019-01-23T01:21:30.758Z,-4.66
2019-01-23T01:24:04.393Z,-4.77
2019-01-23T01:26:37.567Z,-4.90
2019-01-23T01:29:11.078Z,-4.95
2019-01-23T01:31:47.099Z,-4.93
2019-01-23T01:34:29.288Z,-4.73
2019-01-23T01:37:02.425Z,-4.92
2019-01-23T01:39:37.058Z,-4.91
2019-01-23T01:42:19.674Z,-4.89
2019-01-23T01:44:53.109Z,-4.95
2019-01-23T01:47:26.426Z,-4.96
2019-01-23T01:50:00.027Z,-5.05
2019-01-23T01:52:33.639Z,-5.09
2019-01-23T01:55:08.314Z,-5.16
2019-01-23T01:57:56.962Z,-5.05
2019-01-23T02:00:39.857Z,-4.96
2019-01-23T02:03:15.436Z,-5.04
2019-01-23T02:05:57.800Z,-5.04
2019-01-23T02:08:31.593Z,-5.14
2019-01-23T02:11:13.784Z,-5.12
2019-01-23T02:13:50.471Z,-5.23
2019-01-23T02:16:23.327Z,-5.21
2019-01-23T02:19:05.342Z,-5.27
2019-01-23T02:21:38.490Z,-5.42
2019-01-23T02:24:11.683Z,-5.32
2019-01-23T02:26:54.085Z,-5.31
2019-01-23T02:29:27.577Z,-5.45
2019-01-23T02:32:01.434Z,-5.46
2019-01-23T02:34:35.361Z,-5.53
2019-01-23T02:37:18.100Z,-5.58
2019-01-23T02:40:00.346Z,-5.63
2019-01-23T02:42:33.508Z,-5.61
2019-01-23T02:45:08.000Z,-5.59
2019-01-23T02:47:51.524Z,-5.49
2019-01-23T02:50:33.981Z,-5.60
2019-01-23T02:53:07.622Z,-5.74
2019-01-23T02:55:42.937Z,-5.85
2019-01-23T02:58:17.407Z,-5.85
2019-01-23T03:00:55.501Z,-5.94
2019-01-23T03:03:38.838Z,-5.92
2019-01-23T03:06:12.321Z,-6.00
2019-01-23T03:08:46.243Z,-5.87
2019-01-23T03:11:19.441Z,-6.03
2019-01-23T03:13:52.926Z,-6.06
2019-01-23T03:16:26.636Z,-6.03
2019-01-23T03:19:00.229Z,-6.10
2019-01-23T03:21:33.762Z,-6.13
2019-01-23T03:24:07.253Z,-6.16
2019-01-23T03:26:41.771Z,-6.11
2019-01-23T03:29:15.154Z,-6.16
2019-01-23T03:31:49.350Z,-6.12
2019-01-23T03:34:32.170Z,-6.13
2019-01-23T03:37:05.566Z,-6.12
2019-01-23T03:39:38.840Z,-6.16
2019-01-23T03:42:12.021Z,-6.18
2019-01-23T03:44:54.858Z,-6.16
2019-01-23T03:47:39.174Z,-6.15
2019-01-23T03:50:23.705Z,-6.22
2019-01-23T03:52:57.309Z,-6.30
2019-01-23T03:55:30.534Z,-6.22
2019-01-23T03:58:05.990Z,-6.26
2019-01-23T04:00:39.490Z,-6.31
2019-01-23T04:03:12.990Z,-6.26
2019-01-23T04:05:46.455Z,-6.42
2019-01-23T04:08:19.918Z,-6.41
2019-01-23T04:10:55.328Z,-6.41
2019-01-23T04:13:29.145Z,-6.39
2019-01-23T04:16:02.975Z,-6.43
2019-01-23T04:18:36.801Z,-6.40
2019-01-23T04:21:19.041Z,-6.41
2019-01-23T04:23:52.525Z,-6.47
2019-01-23T04:26:26.024Z,-6.54
2019-01-23T04:28:59.972Z,-6.57
2019-01-23T04:31:33.780Z,-6.47
2019-01-23T04:34:07.531Z,-6.53
2019-01-23T04:36:50.837Z,-6.54
2019-01-23T04:39:33.008Z,-6.46
2019-01-23T04:42:12.181Z,-6.52
2019-01-23T04:44:55.489Z,-6.36
2019-01-23T04:47:29.123Z,-6.37
2019-01-23T04:50:02.796Z,-6.32
2019-01-23T04:52:50.437Z,-6.30
2019-01-23T04:55:23.546Z,-6.29
2019-01-23T04:58:06.953Z,-6.11
2019-01-23T05:00:40.862Z,-6.16
2019-01-23T05:03:14.155Z,-6.17
2019-01-23T05:05:48.498Z,-6.11
2019-01-23T05:08:30.953Z,-5.96
2019-01-23T05:11:04.225Z,-5.98
2019-01-23T05:13:38.068Z,-5.93
2019-01-23T05:16:11.552Z,-5.92
2019-01-23T05:18:54.963Z,-5.77
2019-01-23T05:21:29.506Z,-5.78
2019-01-23T05:24:02.842Z,-5.81
2019-01-23T05:26:45.621Z,-5.70
2019-01-23T05:29:29.746Z,-5.64
2019-01-23T05:32:12.575Z,-5.61
2019-01-23T05:34:54.728Z,-5.58
2019-01-23T05:37:27.897Z,-5.82
2019-01-23T05:40:01.428Z,-5.88
2019-01-23T05:42:35.362Z,-5.86
2019-01-23T05:45:10.602Z,-5.81
2019-01-23T05:47:46.485Z,-5.76
2019-01-23T05:50:28.724Z,-5.70
2019-01-23T05:53:02.648Z,-5.61
2019-01-23T05:55:35.762Z,-5.68
2019-01-23T05:58:10.156Z,-5.69
2019-01-23T06:00:58.814Z,-5.83
2019-01-23T06:03:32.650Z,-5.94
2019-01-23T06:06:05.768Z,-5.91
2019-01-23T06:08:39.279Z,-5.97
2019-01-23T06:11:13.243Z,-5.91
2019-01-23T06:13:46.614Z,-5.93
2019-01-23T06:16:20.310Z,-5.99
2019-01-23T06:18:53.726Z,-5.99
2019-01-23T06:21:27.281Z,-5.96
2019-01-23T06:24:00.843Z,-6.09
2019-01-23T06:26:34.613Z,-6.13
2019-01-23T06:29:08.765Z,-6.08
2019-01-23T06:31:51.408Z,-6.15
2019-01-23T06:34:23.206Z,-6.19
2019-01-23T06:36:57.487Z,-6.16
2019-01-23T06:39:39.360Z,-6.13
2019-01-23T06:42:12.617Z,-6.26
2019-01-23T06:44:46.405Z,-6.23
2019-01-23T06:47:19.618Z,-6.16
2019-01-23T06:50:02.630Z,-6.22
2019-01-23T06:52:35.760Z,-6.30
2019-01-23T06:55:09.585Z,-6.27
2019-01-23T06:57:43.015Z,-6.26
2019-01-23T07:00:19.073Z,-6.17
2019-01-23T07:03:01.026Z,-6.16
2019-01-23T07:05:34.210Z,-6.19
2019-01-23T07:08:07.331Z,-6.25
2019-01-23T07:10:50.252Z,-6.12
2019-01-23T07:13:33.139Z,-6.12
2019-01-23T07:16:06.606Z,-6.15
2019-01-23T07:18:40.030Z,-6.19
2019-01-23T07:21:14.944Z,-6.24
2019-01-23T07:23:49.028Z,-6.20
2019-01-23T07:26:22.717Z,-6.14
2019-01-23T07:28:56.287Z,-6.21
2019-01-23T07:31:29.819Z,-6.19
2019-01-23T07:34:03.739Z,-6.21
2019-01-23T07:36:36.855Z,-6.20
2019-01-23T07:39:11.385Z,-6.32
2019-01-23T07:41:53.593Z,-6.22
2019-01-23T07:44:27.060Z,-6.21
2019-01-23T07:47:00.843Z,-6.24
2019-01-23T07:49:34.397Z,-6.20
2019-01-23T07:52:08.231Z,-6.12
2019-01-23T07:54:41.691Z,-6.17
2019-01-23T07:57:14.869Z,-6.04
2019-01-23T07:59:48.352Z,-6.01
2019-01-23T08:02:22.539Z,-5.98
2019-01-23T08:04:56.331Z,-5.96
2019-01-23T08:07:29.725Z,-5.96
2019-01-23T08:10:02.847Z,-5.96
2019-01-23T08:12:36.700Z,-5.92
2019-01-23T08:15:17.864Z,-5.91
2019-01-23T08:17:51.043Z,-5.95
2019-01-23T08:20:34.509Z,-5.97
2019-01-23T08:23:08.362Z,-6.04
2019-01-23T08:25:51.304Z,-5.88
2019-01-23T08:28:33.507Z,-5.93
2019-01-23T08:31:07.069Z,-5.95
2019-01-23T08:33:40.223Z,-5.94
2019-01-23T08:36:15.566Z,-5.95
2019-01-23T08:38:49.460Z,-6.00
2019-01-23T08:41:22.889Z,-5.89
2019-01-23T08:43:56.287Z,-5.86
2019-01-23T08:46:29.383Z,-5.89
2019-01-23T08:49:11.470Z,-5.75
2019-01-23T08:51:44.937Z,-5.84
2019-01-23T08:54:18.195Z,-5.78
2019-01-23T08:56:52.546Z,-5.64
2019-01-23T08:59:26.910Z,-5.49
2019-01-23T09:01:59.959Z,-5.38
2019-01-23T09:04:33.183Z,-5.38
2019-01-23T09:07:06.950Z,-5.39
2019-01-23T09:09:40.650Z,-5.29
2019-01-23T09:12:14.241Z,-5.24
2019-01-23T09:14:47.796Z,-5.18
2019-01-23T09:17:21.881Z,-5.17
2019-01-23T09:20:04.395Z,-5.04
2019-01-23T09:22:38.938Z,-5.07
2019-01-23T09:25:13.937Z,-5.06
2019-01-23T09:27:58.086Z,-5.05
2019-01-23T09:30:43.524Z,-5.09
2019-01-23T09:34:15.598Z,-5.04
2019-01-23T09:37:26.406Z,-5.05
2019-01-23T09:40:35.705Z,-4.99
2019-01-23T09:43:22.400Z,-4.99
2019-01-23T09:46:41.807Z,-4.90
2019-01-23T09:49:56.252Z,-4.92
2019-01-23T09:53:03.383Z,-4.82
2019-01-23T09:55:37.298Z,-4.80
2019-01-23T09:58:11.952Z,-4.76
2019-01-23T10:00:59.891Z,-4.60
2019-01-23T10:03:49.285Z,-4.46
2019-01-23T10:06:23.389Z,-4.32
2019-01-23T10:09:10.700Z,-4.26
2019-01-23T10:11:44.005Z,-4.26
2019-01-23T10:14:17.900Z,-4.24
2019-01-23T10:16:52.170Z,-4.11
2019-01-23T10:19:25.489Z,-4.01
2019-01-23T10:22:11.184Z,-3.86
2019-01-23T10:24:46.120Z,-3.93
2019-01-23T10:27:19.748Z,-3.89
2019-01-23T10:29:53.508Z,-3.86
2019-01-23T10:32:27.715Z,-3.70
2019-01-23T10:35:02.105Z,-3.63
2019-01-23T10:37:36.000Z,-3.47
2019-01-23T10:40:12.431Z,-3.49
2019-01-23T10:42:47.445Z,-3.40
2019-01-23T10:45:21.369Z,-3.35
2019-01-23T10:47:56.200Z,-3.33
2019-01-23T10:50:30.382Z,-3.24
2019-01-23T10:53:03.892Z,-3.25
2019-01-23T10:55:37.001Z,-3.22
2019-01-23T10:58:11.220Z,-3.30
2019-01-23T11:00:44.447Z,-3.37
2019-01-23T11:03:18.328Z,-3.27
2019-01-23T11:05:52.069Z,-3.21
2019-01-23T11:08:37.608Z,-3.06
2019-01-23T11:11:10.520Z,-3.04
2019-01-23T11:13:44.177Z,-3.03
2019-01-23T11:16:17.189Z,-2.92
2019-01-23T11:19:07.942Z,-2.80
2019-01-23T11:21:59.918Z,-2.80
2019-01-23T11:24:52.247Z,-2.85
2019-01-23T11:27:42.310Z,-2.86
2019-01-23T11:30:22.104Z,-2.88
2019-01-23T11:32:56.024Z,-2.88
2019-01-23T11:35:42.433Z,-2.89
2019-01-23T11:38:27.515Z,-2.84
2019-01-23T11:41:01.239Z,-2.91
2019-01-23T11:43:35.950Z,-2.94
2019-01-23T11:46:10.154Z,-2.91
2019-01-23T11:49:01.507Z,-2.80
2019-01-23T11:51:34.688Z,-2.80
2019-01-23T11:54:07.593Z,-2.75
2019-01-23T11:56:57.429Z,-2.76
2019-01-23T11:59:32.006Z,-2.65
2019-01-23T12:02:05.960Z,-2.61
2019-01-23T12:04:40.176Z,-2.52
2019-01-23T12:07:29.886Z,-2.49
2019-01-23T12:10:21.669Z,-2.50
2019-01-23T12:13:12.335Z,-2.45
2019-01-23T12:15:45.864Z,-2.28
2019-01-23T12:18:18.831Z,-2.26
2019-01-23T12:20:52.647Z,-2.21
2019-01-23T12:23:26.698Z,-2.17
2019-01-23T12:26:00.503Z,-2.15
2019-01-23T12:28:51.979Z,-2.14
2019-01-23T12:31:26.413Z,-2.16
2019-01-23T12:34:17.815Z,-2.02
2019-01-23T12:37:03.487Z,-1.88
2019-01-23T12:39:37.680Z,-1.81
2019-01-23T12:42:29.547Z,-1.64
2019-01-23T12:45:23.036Z,-1.64
2019-01-23T12:47:57.345Z,-1.67
2019-01-23T12:50:32.508Z,-1.65
2019-01-23T12:53:05.467Z,-1.73
2019-01-23T12:55:39.449Z,-1.76
2019-01-23T12:58:13.962Z,-2.01
2019-01-23T13:00:58.579Z,-2.12
2019-01-23T13:03:32.215Z,-2.10
2019-01-23T13:06:18.321Z,-2.05
2019-01-23T13:09:05.895Z,-2.02
2019-01-23T13:11:57.526Z,-2.00
2019-01-23T13:14:29.945Z,-2.02
2019-01-23T13:17:12.500Z,-1.92
2019-01-23T13:19:45.953Z,-1.90
2019-01-23T13:22:19.089Z,-1.80
2019-01-23T13:24:52.711Z,-1.73
2019-01-23T13:27:25.877Z,-1.72
2019-01-23T13:30:10.506Z,-1.55
2019-01-23T13:32:43.960Z,-1.58
2019-01-23T13:35:28.889Z,-1.50
2019-01-23T13:38:03.512Z,-1.51
2019-01-23T13:40:37.871Z,-1.60
2019-01-23T13:43:11.319Z,-1.60
2019-01-23T13:45:47.871Z,-1.67
2019-01-23T13:48:21.117Z,-1.66
2019-01-23T13:51:03.194Z,-1.61
2019-01-23T13:53:38.187Z,-1.66
2019-01-23T13:56:11.355Z,-1.64
2019-01-23T13:58:45.230Z,-1.62
2019-01-23T14:01:18.769Z,-1.63
2019-01-23T14:03:52.001Z,-1.57
2019-01-23T14:06:25.279Z,-1.55
2019-01-23T14:09:08.661Z,-1.54
2019-01-23T14:11:42.624Z,-1.65
2019-01-23T14:14:16.097Z,-1.67
2019-01-23T14:16:50.502Z,-1.61
2019-01-23T14:19:39.150Z,-1.68
2019-01-23T14:22:12.321Z,-1.73
2019-01-23T14:24:45.991Z,-1.84
2019-01-23T14:27:19.507Z,-1.71
2019-01-23T14:29:53.032Z,-1.74
2019-01-23T14:32:25.192Z,-1.79
2019-01-23T14:35:08.348Z,-1.74
2019-01-23T14:37:42.119Z,-1.80
2019-01-23T14:40:24.493Z,-1.81
2019-01-23T14:42:57.090Z,-1.85
2019-01-23T14:45:30.134Z,-1.88
2019-01-23T14:48:04.805Z,-1.89
2019-01-23T14:50:40.088Z,-1.92
2019-01-23T14:53:14.948Z,-1.98
2019-01-23T14:55:58.068Z,-1.91
2019-01-23T14:58:32.040Z,-1.96
2019-01-23T15:01:07.044Z,-1.96
2019-01-23T15:03:49.683Z,-2.02
2019-01-23T15:06:22.824Z,-2.06
2019-01-23T15:08:55.765Z,-2.22
2019-01-23T15:11:28.337Z,-2.26
2019-01-23T15:14:02.682Z,-2.26
2019-01-23T15:16:44.982Z,-2.30
2019-01-23T15:19:19.837Z,-2.29
2019-01-23T15:21:52.973Z,-2.35
2019-01-23T15:24:35.781Z,-2.32
2019-01-23T15:27:18.433Z,-2.37
2019-01-23T15:29:53.082Z,-2.56
2019-01-23T15:32:26.860Z,-2.61
2019-01-23T15:34:59.982Z,-2.66
2019-01-23T15:37:33.422Z,-2.72
2019-01-23T15:40:08.260Z,-2.73
2019-01-23T15:42:41.510Z,-2.83
2019-01-23T15:45:14.792Z,-2.80
2019-01-23T15:48:04.924Z,-2.83
2019-01-23T15:50:37.751Z,-2.95
2019-01-23T15:53:11.385Z,-2.99
2019-01-23T15:55:44.840Z,-3.00
2019-01-23T15:58:18.056Z,-3.02
2019-01-23T16:00:51.178Z,-3.06
2019-01-23T16:03:39.308Z,-3.04
2019-01-23T16:06:12.783Z,-3.16
2019-01-23T16:08:45.975Z,-3.18
2019-01-23T16:11:19.343Z,-3.22
2019-01-23T16:14:01.765Z,-3.12
2019-01-23T16:16:52.722Z,-3.12
2019-01-23T16:19:27.934Z,-3.13
2019-01-23T16:22:01.589Z,-3.18
2019-01-23T16:24:34.760Z,-3.17
2019-01-23T16:27:07.999Z,-3.12
2019-01-23T16:29:42.006Z,-3.14
2019-01-23T16:32:15.736Z,-3.20
2019-01-23T16:34:48.901Z,-3.18
2019-01-23T16:37:22.576Z,-3.19
2019-01-23T16:39:56.263Z,-3.21
2019-01-23T16:42:29.482Z,-3.16
2019-01-23T16:45:19.371Z,-3.12
2019-01-23T16:47:52.492Z,-3.13
2019-01-23T16:50:26.310Z,-3.13
2019-01-23T16:52:59.805Z,-3.06
2019-01-23T16:55:33.270Z,-3.00
2019-01-23T16:58:07.673Z,-3.01
2019-01-23T17:00:50.535Z,-2.95
2019-01-23T17:03:35.574Z,-3.00
2019-01-23T17:06:10.278Z,-2.98
2019-01-23T17:08:52.654Z,-2.91
2019-01-23T17:11:25.815Z,-2.99
2019-01-23T17:13:59.997Z,-2.92
2019-01-23T17:16:44.523Z,-2.83
2019-01-23T17:19:20.434Z,-2.92
2019-01-23T17:21:55.302Z,-2.94
2019-01-23T17:24:29.026Z,-2.95
2019-01-23T17:27:03.183Z,-3.02
2019-01-23T17:29:49.553Z,-2.89
2019-01-23T17:32:24.123Z,-2.86
2019-01-23T17:34:59.273Z,-2.92
2019-01-23T17:37:32.999Z,-2.84
2019-01-23T17:40:08.090Z,-2.88
2019-01-23T17:42:41.639Z,-2.83
2019-01-23T17:45:18.259Z,-2.78
2019-01-23T17:47:52.104Z,-2.86
2019-01-23T17:50:25.908Z,-2.83
2019-01-23T17:52:58.505Z,-2.84
2019-01-23T17:55:42.430Z,-2.74
2019-01-23T17:58:24.507Z,-2.73
2019-01-23T18:00:59.169Z,-2.79
2019-01-23T18:03:32.614Z,-2.73
2019-01-23T18:06:16.292Z,-2.64
2019-01-23T18:08:58.693Z,-2.69
2019-01-23T18:11:31.965Z,-2.71
2019-01-23T18:14:07.152Z,-2.71
2019-01-23T18:16:41.042Z,-2.71
2019-01-23T18:19:16.238Z,-2.79
2019-01-23T18:21:49.474Z,-2.89
2019-01-23T18:24:24.085Z,-2.89
2019-01-23T18:27:06.309Z,-2.91
2019-01-23T18:29:39.653Z,-2.93
2019-01-23T18:32:14.597Z,-3.05
2019-01-23T18:35:13.710Z,-2.96
2019-01-23T18:38:25.208Z,-2.95
2019-01-23T18:41:35.231Z,-3.00
2019-01-23T18:45:01.265Z,-3.01
2019-01-23T18:48:25.236Z,-2.97
2019-01-23T18:51:22.113Z,-3.02
2019-01-23T18:53:55.285Z,-3.05
2019-01-23T18:56:29.250Z,-3.14
2019-01-23T18:59:02.400Z,-3.17
2019-01-23T19:01:36.578Z,-3.19
2019-01-23T19:04:19.855Z,-3.17
2019-01-23T19:06:53.817Z,-3.14
2019-01-23T19:09:26.978Z,-3.16
2019-01-23T19:12:02.507Z,-3.06
2019-01-23T19:14:36.079Z,-3.11
2019-01-23T19:17:09.272Z,-3.18
2019-01-23T19:19:42.759Z,-3.18
2019-01-23T19:22:16.341Z,-3.13
2019-01-23T19:24:49.836Z,-3.18
2019-01-23T19:27:35.311Z,-3.22
2019-01-23T19:30:11.377Z,-3.20
2019-01-23T19:32:44.886Z,-3.29
2019-01-23T19:35:19.529Z,-3.25
2019-01-23T19:37:53.762Z,-3.17
2019-01-23T19:40:27.514Z,-3.17
2019-01-23T19:43:02.414Z,-3.18
2019-01-23T19:45:35.865Z,-3.16
2019-01-23T19:48:18.701Z,-3.13
2019-01-23T19:51:02.411Z,-3.10
2019-01-23T19:53:35.659Z,-3.13
2019-01-23T19:56:09.192Z,-3.02
2019-01-23T19:58:44.183Z,-3.04
2019-01-23T20:01:18.484Z,-3.05
2019-01-23T20:03:53.518Z,-3.14
2019-01-23T20:06:28.232Z,-3.09
2019-01-23T20:09:01.684Z,-3.09
2019-01-23T20:11:45.611Z,-3.02
2019-01-23T20:14:29.420Z,-3.05
2019-01-23T20:17:19.942Z,-3.04
2019-01-23T20:20:04.840Z,-3.06
2019-01-23T20:22:47.900Z,-3.11
2019-01-23T20:25:30.285Z,-3.10
2019-01-23T20:28:06.159Z,-3.19
2019-01-23T20:30:41.178Z,-3.16
2019-01-23T20:33:16.982Z,-3.20
2019-01-23T20:35:50.584Z,-3.19
2019-01-23T20:38:26.209Z,-3.17
2019-01-23T20:41:00.256Z,-3.26
2019-01-23T20:43:42.814Z,-3.17
2019-01-23T20:46:16.206Z,-3.16
2019-01-23T20:48:49.414Z,-3.19
2019-01-23T20:51:22.650Z,-3.16
2019-01-23T20:53:56.180Z,-3.16
2019-01-23T20:56:31.475Z,-3.17
2019-01-23T20:59:04.663Z,-3.13
2019-01-23T21:01:38.661Z,-3.14
2019-01-23T21:04:12.866Z,-3.09
2019-01-23T21:06:47.588Z,-3.13
2019-01-23T21:09:20.767Z,-3.13
2019-01-23T21:12:04.069Z,-3.03
2019-01-23T21:14:37.584Z,-3.07
2019-01-23T21:17:11.007Z,-3.07
2019-01-23T21:19:52.935Z,-3.02
2019-01-23T21:22:27.496Z,-3.06
2019-01-23T21:25:01.127Z,-3.10
2019-01-23T21:27:35.774Z,-3.04
2019-01-23T21:30:22.587Z,-2.99
2019-01-23T21:32:56.475Z,-3.02
2019-01-23T21:35:39.705Z,-2.97
2019-01-23T21:38:25.056Z,-3.04
2019-01-23T21:41:00.592Z,-3.22
2019-01-23T21:43:34.726Z,-3.21
2019-01-23T21:46:17.317Z,-3.28
2019-01-23T21:48:59.535Z,-3.22
2019-01-23T21:51:33.020Z,-3.31
2019-01-23T21:54:07.672Z,-3.37
2019-01-23T21:56:51.614Z,-3.21
2019-01-23T21:59:26.115Z,-3.24
2019-01-23T22:01:59.262Z,-3.25
2019-01-23T22:04:43.283Z,-3.20
2019-01-23T22:07:17.282Z,-3.21
2019-01-23T22:09:59.573Z,-3.19
2019-01-23T22:12:33.380Z,-3.19
2019-01-23T22:15:20.398Z,-3.16
2019-01-23T22:17:53.610Z,-3.17
2019-01-23T22:20:27.234Z,-3.19
2019-01-23T22:23:00.502Z,-3.18
2019-01-23T22:25:42.876Z,-3.08
2019-01-23T22:28:28.575Z,-3.17
2019-01-23T22:31:18.355Z,-3.17
2019-01-23T22:34:00.503Z,-3.14
2019-01-23T22:36:34.180Z,-3.17
2019-01-23T22:39:09.309Z,-3.21
2019-01-23T22:41:42.811Z,-3.24
2019-01-23T22:44:17.032Z,-3.14
2019-01-23T22:46:59.792Z,-3.07
2019-01-23T22:49:47.871Z,-3.07
2019-01-23T22:52:21.768Z,-3.11
2019-01-23T22:54:55.275Z,-3.12
2019-01-23T22:57:29.107Z,-3.11
2019-01-23T23:00:02.794Z,-3.17
2019-01-23T23:02:39.328Z,-3.27
2019-01-23T23:05:12.912Z,-3.38
2019-01-23T23:07:45.044Z,-3.41
2019-01-23T23:10:19.839Z,-3.50
2019-01-23T23:12:53.367Z,-3.53
2019-01-23T23:15:29.423Z,-3.51
2019-01-23T23:18:14.876Z,-3.45
2019-01-23T23:20:49.933Z,-3.40
2019-01-23T23:23:23.079Z,-3.40
2019-01-23T23:25:56.244Z,-3.40
2019-01-23T23:28:39.209Z,-3.40
2019-01-23T23:31:12.703Z,-3.39
2019-01-23T23:33:45.853Z,-3.35
2019-01-23T23:36:19.639Z,-3.28
2019-01-23T23:38:53.116Z,-3.29
2019-01-23T23:41:26.620Z,-3.28
2019-01-23T23:44:02.371Z,-3.28
2019-01-23T23:46:35.609Z,-3.23
2019-01-23T23:49:09.831Z,-3.28
2019-01-23T23:51:52.085Z,-3.42
2019-01-23T23:54:27.595Z,-3.50
2019-01-23T23:57:01.447Z,-3.45
2019-01-23T23:59:47.970Z,-3.54
